createdAt,value
2023-03-22T00:00:30.405Z,21.03
2023-03-22T00:06:04.388Z,21.83
2023-03-22T00:08:36.276Z,21.80
2023-03-22T00:11:14.384Z,21.80
2023-03-22T00:14:05.294Z,22.80
2023-03-22T00:16:58.089Z,22.00
2023-03-22T00:19:38.399Z,22.60
2023-03-22T00:22:19.631Z,22.40
2023-03-22T00:25:06.413Z,22.40
2023-03-22T00:28:11.321Z,21.73
2023-03-22T00:30:49.119Z,21.20
2023-03-22T00:33:40.307Z,21.90
2023-03-22T00:36:22.560Z,21.07
2023-03-22T00:39:02.001Z,21.60
2023-03-22T00:41:34.262Z,21.83
2023-03-22T00:47:18.278Z,20.53
2023-03-22T00:50:09.329Z,21.90
2023-03-22T00:52:44.713Z,20.83
2023-03-22T00:55:52.605Z,21.97
2023-03-22T00:58:50.278Z,22.00
2023-03-22T01:01:18.987Z,22.40
2023-03-22T01:03:49.884Z,21.73
2023-03-22T01:06:22.030Z,23.03
2023-03-22T01:08:59.878Z,21.70
2023-03-22T01:11:38.657Z,22.57
2023-03-22T01:14:10.555Z,22.93
2023-03-22T01:16:42.497Z,23.10
2023-03-22T01:19:17.829Z,21.40
2023-03-22T01:21:51.208Z,21.20
2023-03-22T01:24:20.140Z,22.10
2023-03-22T01:27:04.817Z,22.60
2023-03-22T01:29:38.350Z,21.80
2023-03-22T01:32:07.375Z,21.83
2023-03-22T01:34:35.911Z,23.17
2023-03-22T01:37:20.924Z,23.40
2023-03-22T01:40:01.115Z,22.10
2023-03-22T01:42:39.560Z,21.70
2023-03-22T01:45:46.067Z,22.00
2023-03-22T01:48:23.512Z,22.37
2023-03-22T01:51:10.300Z,22.90
2023-03-22T01:54:11.183Z,22.13
2023-03-22T01:56:43.033Z,24.13
2023-03-22T01:59:21.252Z,23.60
2023-03-22T02:02:14.130Z,23.43
2023-03-22T02:04:50.729Z,23.47
2023-03-22T02:07:26.069Z,24.93
2023-03-22T02:09:56.934Z,23.40
2023-03-22T02:12:37.901Z,22.80
2023-03-22T02:15:25.026Z,23.03
2023-03-22T02:18:25.736Z,23.00
2023-03-22T02:21:39.391Z,22.63
2023-03-22T02:24:56.733Z,24.20
2023-03-22T02:28:07.715Z,23.07
2023-03-22T02:31:15.693Z,23.20
2023-03-22T02:34:15.875Z,23.70
2023-03-22T02:37:11.414Z,22.73
2023-03-22T02:39:47.054Z,22.70
2023-03-22T02:42:33.215Z,22.60
2023-03-22T02:45:11.162Z,22.50
2023-03-22T02:47:45.051Z,22.97
2023-03-22T02:53:47.812Z,21.03
2023-03-22T02:56:27.037Z,19.17
2023-03-22T02:59:01.816Z,19.93
2023-03-22T03:01:39.337Z,21.60
2023-03-22T03:04:12.359Z,19.93
2023-03-22T03:06:49.057Z,21.17
2023-03-22T03:09:22.883Z,20.90
2023-03-22T03:11:54.721Z,20.57
2023-03-22T03:14:29.399Z,22.20
2023-03-22T03:17:13.923Z,20.00
2023-03-22T03:19:56.036Z,21.17
2023-03-22T03:22:39.324Z,21.07
2023-03-22T03:25:20.675Z,21.57
2023-03-22T03:27:59.853Z,21.83
2023-03-22T03:30:35.401Z,21.43
2023-03-22T03:33:10.773Z,20.00
2023-03-22T03:35:52.204Z,20.43
2023-03-22T03:38:27.751Z,20.63
2023-03-22T03:41:00.276Z,21.17
2023-03-22T03:43:33.397Z,20.30
2023-03-22T03:46:02.332Z,18.00
2023-03-22T03:48:33.964Z,20.40
2023-03-22T03:51:04.184Z,19.53
2023-03-22T03:53:35.908Z,20.57
2023-03-22T03:56:12.204Z,19.97
2023-03-22T03:58:50.777Z,20.30
2023-03-22T04:01:21.811Z,19.53
2023-03-22T04:04:06.369Z,17.90
2023-03-22T04:06:44.327Z,19.63
2023-03-22T04:09:19.014Z,19.50
2023-03-22T04:11:55.021Z,17.17
2023-03-22T04:14:29.199Z,18.80
2023-03-22T04:17:01.490Z,17.93
2023-03-22T04:19:33.539Z,17.87
2023-03-22T04:22:02.533Z,18.63
2023-03-22T04:24:33.365Z,18.70
2023-03-22T04:27:01.642Z,18.57
2023-03-22T04:29:48.610Z,18.60
2023-03-22T04:32:35.153Z,18.47
2023-03-22T04:35:06.328Z,19.07
2023-03-22T04:37:38.036Z,18.00
2023-03-22T04:40:22.458Z,19.00
2023-03-22T04:43:06.853Z,18.40
2023-03-22T04:45:57.382Z,17.60
2023-03-22T04:48:34.663Z,18.00
2023-03-22T04:51:13.331Z,18.27
2023-03-22T04:53:51.267Z,18.80
2023-03-22T04:56:20.037Z,17.67
2023-03-22T04:58:51.118Z,18.47
2023-03-22T05:01:24.317Z,19.40
2023-03-22T05:04:05.000Z,30.33
2023-03-22T05:06:40.510Z,18.27
2023-03-22T05:09:26.854Z,19.60
2023-03-22T05:12:02.445Z,18.30
2023-03-22T05:15:01.088Z,18.70
2023-03-22T05:17:36.387Z,20.17
2023-03-22T05:20:10.088Z,17.10
2023-03-22T05:22:42.003Z,16.83
2023-03-22T05:25:20.166Z,16.77
2023-03-22T05:27:54.194Z,15.97
2023-03-22T05:30:50.422Z,17.27
2023-03-22T05:33:35.884Z,16.90
2023-03-22T05:36:23.831Z,16.17
2023-03-22T05:39:29.916Z,17.10
2023-03-22T05:42:19.576Z,17.30
2023-03-22T05:44:55.598Z,16.60
2023-03-22T05:47:52.569Z,16.80
2023-03-22T05:50:25.203Z,17.10
2023-03-22T05:53:06.967Z,17.90
2023-03-22T05:56:05.580Z,19.47
2023-03-22T05:58:43.945Z,17.00
2023-03-22T06:01:24.516Z,17.43
2023-03-22T06:04:26.247Z,18.27
2023-03-22T06:07:05.974Z,15.87
2023-03-22T06:09:46.855Z,20.20
2023-03-22T06:12:22.562Z,16.60
2023-03-22T06:14:56.445Z,18.40
2023-03-22T06:17:51.647Z,16.80
2023-03-22T06:20:25.756Z,18.40
2023-03-22T06:23:09.681Z,19.47
2023-03-22T06:25:52.368Z,18.60
2023-03-22T06:28:44.542Z,19.20
2023-03-22T06:31:14.141Z,21.10
2023-03-22T06:34:08.899Z,20.00
2023-03-22T06:36:43.266Z,19.20
2023-03-22T06:39:27.282Z,19.57
2023-03-22T06:42:07.766Z,19.30
2023-03-22T06:44:45.712Z,21.47
2023-03-22T06:47:41.481Z,18.70
2023-03-22T06:50:55.840Z,18.33
2023-03-22T06:54:16.142Z,19.50
2023-03-22T06:57:02.417Z,19.30
2023-03-22T06:59:38.440Z,19.27
2023-03-22T07:02:13.505Z,20.07
2023-03-22T07:04:56.688Z,22.30
2023-03-22T07:07:39.406Z,21.60
2023-03-22T07:10:12.037Z,22.50
2023-03-22T07:13:04.351Z,20.47
2023-03-22T07:15:37.129Z,21.60
2023-03-22T07:18:19.068Z,21.40
2023-03-22T07:21:00.228Z,21.37
2023-03-22T07:23:39.319Z,23.20
2023-03-22T07:26:16.318Z,22.00
2023-03-22T07:28:51.842Z,21.20
2023-03-22T07:31:34.545Z,20.47
2023-03-22T07:34:29.777Z,19.80
2023-03-22T07:37:27.037Z,22.63
2023-03-22T07:40:04.021Z,18.97
2023-03-22T07:42:44.690Z,18.77
2023-03-22T07:45:34.324Z,18.83
2023-03-22T07:48:37.608Z,19.30
2023-03-22T07:51:35.118Z,18.87
2023-03-22T07:54:07.827Z,19.97
2023-03-22T08:00:47.984Z,18.50
2023-03-22T08:04:07.028Z,18.50
2023-03-22T08:07:38.775Z,21.97
2023-03-22T08:10:39.970Z,20.30
2023-03-22T08:14:49.137Z,21.93
2023-03-22T08:17:19.471Z,19.97
2023-03-22T08:23:48.818Z,19.60
2023-03-22T08:26:51.498Z,19.80
2023-03-22T08:29:42.354Z,20.70
2023-03-22T08:32:25.386Z,20.27
2023-03-22T08:35:00.859Z,19.60
2023-03-22T08:38:03.894Z,19.37
2023-03-22T08:40:44.239Z,19.53
2023-03-22T08:43:18.985Z,19.40
2023-03-22T08:45:57.869Z,19.53
2023-03-22T08:48:38.182Z,18.50
2023-03-22T08:51:40.317Z,18.23
2023-03-22T08:54:23.916Z,18.17
2023-03-22T08:57:09.641Z,17.57
2023-03-22T09:00:07.974Z,17.27
2023-03-22T09:03:06.342Z,18.37
2023-03-22T09:05:42.830Z,17.37
2023-03-22T09:08:19.146Z,18.70
2023-03-22T09:10:53.557Z,17.53
2023-03-22T09:13:24.038Z,18.23
2023-03-22T09:16:00.964Z,18.23
2023-03-22T09:18:37.695Z,17.40
2023-03-22T09:21:14.537Z,18.27
2023-03-22T09:24:06.755Z,17.90
2023-03-22T09:26:48.637Z,17.00
2023-03-22T09:29:28.267Z,17.40
2023-03-22T09:32:03.113Z,17.47
2023-03-22T09:34:41.903Z,17.47
2023-03-22T09:37:14.951Z,17.33
2023-03-22T09:39:55.015Z,17.63
2023-03-22T09:42:49.614Z,16.20
2023-03-22T09:45:44.450Z,16.10
2023-03-22T09:48:40.597Z,16.80
2023-03-22T09:51:43.135Z,16.00
2023-03-22T09:54:28.611Z,16.03
2023-03-22T09:57:01.874Z,15.90
2023-03-22T09:59:41.832Z,16.70
2023-03-22T10:02:44.599Z,15.50
2023-03-22T10:05:56.170Z,16.80
2023-03-22T10:08:46.764Z,16.10
2023-03-22T10:11:36.433Z,16.00
2023-03-22T10:14:30.900Z,15.77
2023-03-22T10:17:15.937Z,15.37
2023-03-22T10:20:10.460Z,18.57
2023-03-22T10:22:48.184Z,16.07
2023-03-22T10:25:36.742Z,16.37
2023-03-22T10:28:31.846Z,15.93
2023-03-22T10:31:28.034Z,16.03
2023-03-22T10:34:11.633Z,16.60
2023-03-22T10:36:54.884Z,16.70
2023-03-22T10:39:47.517Z,15.33
2023-03-22T10:42:31.052Z,16.40
2023-03-22T10:45:24.629Z,17.50
2023-03-22T10:48:11.518Z,17.70
2023-03-22T10:51:00.903Z,16.30
2023-03-22T10:53:43.530Z,16.30
2023-03-22T10:56:19.286Z,16.43
2023-03-22T10:58:52.176Z,16.60
2023-03-22T11:04:32.389Z,16.17
2023-03-22T11:07:23.265Z,15.43
2023-03-22T11:10:03.008Z,15.07
2023-03-22T11:12:31.637Z,15.70
2023-03-22T11:15:10.497Z,15.20
2023-03-22T11:17:44.794Z,15.80
2023-03-22T11:20:18.440Z,15.37
2023-03-22T11:22:52.406Z,16.20
2023-03-22T11:25:27.247Z,16.20
2023-03-22T11:28:25.764Z,16.60
2023-03-22T11:34:35.787Z,17.60
2023-03-22T11:37:21.510Z,15.77
2023-03-22T11:40:05.720Z,16.60
2023-03-22T11:42:59.140Z,16.73
2023-03-22T11:45:36.283Z,17.53
2023-03-22T11:48:26.483Z,17.10
2023-03-22T11:51:23.548Z,17.33
2023-03-22T11:54:15.749Z,17.10
2023-03-22T11:57:27.461Z,17.20
2023-03-22T12:00:20.641Z,17.10
2023-03-22T12:06:24.346Z,17.40
2023-03-22T12:09:10.382Z,17.40
2023-03-22T12:11:59.662Z,18.13
2023-03-22T12:17:50.653Z,18.53
2023-03-22T12:20:58.614Z,16.00
2023-03-22T12:23:52.907Z,15.80
2023-03-22T12:26:49.227Z,16.53
2023-03-22T12:29:20.749Z,14.70
2023-03-22T12:32:17.859Z,15.53
2023-03-22T12:37:56.341Z,15.70
2023-03-22T12:40:39.655Z,15.90
2023-03-22T12:43:26.409Z,15.90
2023-03-22T12:46:04.024Z,16.33
2023-03-22T12:49:03.715Z,15.63
2023-03-22T12:51:50.763Z,15.10
2023-03-22T12:54:27.996Z,16.33
2023-03-22T12:57:05.989Z,16.00
2023-03-22T13:00:00.978Z,15.60
2023-03-22T13:02:34.021Z,16.33
2023-03-22T13:05:06.935Z,15.50
2023-03-22T13:11:15.089Z,15.73
2023-03-22T13:13:52.691Z,15.70
2023-03-22T13:16:30.354Z,16.00
2023-03-22T13:19:47.924Z,16.00
2023-03-22T13:22:35.776Z,15.70
2023-03-22T13:25:31.995Z,16.97
2023-03-22T13:28:10.380Z,19.17
2023-03-22T13:30:54.552Z,17.97
2023-03-22T13:33:47.989Z,16.07
2023-03-22T13:36:25.449Z,15.83
2023-03-22T13:39:05.073Z,15.93
2023-03-22T13:44:31.433Z,16.20
2023-03-22T13:47:10.304Z,15.90
2023-03-22T13:50:35.437Z,15.67
2023-03-22T13:53:34.196Z,15.57
2023-03-22T13:56:52.938Z,15.00
2023-03-22T14:03:46.075Z,15.90
2023-03-22T14:07:15.789Z,14.87
2023-03-22T14:18:52.420Z,14.23
2023-03-22T14:21:36.469Z,13.93
